Time;durP1;ratioP1;P1;durP2;ratioP2;P2;SDS_P1;SDS_P2;PMS_P1;PMS_P2;Temp;Humidity;BMP_temperature;BMP_pressure;BME280_temperature;BME280_humidity;BME280_pressure;Samples;Min_cycle;Max_cycle;Signal;HPM_P1;HPM_P2
2022/01/26 00:07:02;;;;;;;;;67.67;46.00;;;;;3.52;85.02;103138.47;5075332;28;45582;-69
2022/01/26 00:09:28;;;;;;;;;66.00;48.33;;;;;3.43;85.09;103133.72;5076195;28;45431;-69
2022/01/26 00:11:53;;;;;;;;;65.67;42.00;;;;;3.25;85.17;103110.31;5093725;27;45391;-69
2022/01/26 00:14:19;;;;;;;;;62.67;45.00;;;;;3.41;84.94;103131.06;5098647;27;46044;-69
2022/01/26 00:16:45;;;;;;;;;61.00;45.50;;;;;3.54;84.78;103149.81;5098930;27;45334;-69
2022/01/26 00:19:18;;;;;;;;;68.33;47.67;;;;;3.48;84.72;103153.91;5098744;27;45295;-69
2022/01/26 00:21:49;;;;;;;;;66.33;43.67;;;;;3.47;85.53;103151.25;5098190;27;46083;-69
2022/01/26 00:27:07;;;;;;;;;65.67;49.33;;;;;3.43;84.90;103134.59;5097660;27;45430;-69
2022/01/26 00:29:38;;;;;;;;;80.33;51.33;;;;;3.50;85.07;103151.41;5098234;27;45315;-70
2022/01/26 00:40:43;;;;;;;;;64.00;45.33;;;;;3.58;84.56;103146.53;5098682;27;45269;-70
2022/01/26 00:45:38;;;;;;;;;67.00;47.33;;;;;3.51;84.85;103131.47;5098024;27;46129;-67
2022/01/26 00:48:06;;;;;;;;;62.67;47.67;;;;;3.49;85.17;103129.66;5097888;27;45398;-67
2022/01/26 00:50:33;;;;;;;;;68.00;47.67;;;;;3.59;84.67;103140.53;5098483;27;45477;-67
2022/01/26 00:53:00;;;;;;;;;64.33;42.33;;;;;3.60;84.63;103135.38;5098559;27;45774;-67
2022/01/26 00:55:25;;;;;;;;;64.33;48.00;;;;;3.59;84.65;103135.31;5097913;27;45235;-67
2022/01/26 00:57:51;;;;;;;;;61.33;46.33;;;;;3.63;84.66;103148.53;5098335;27;45428;-67
2022/01/26 01:00:21;;;;;;;;;58.67;45.33;;;;;3.64;84.48;103141.59;5097653;27;45253;-67
2022/01/26 01:02:47;;;;;;;;;65.00;46.00;;;;;3.56;84.41;103132.53;5098493;27;45253;-67
2022/01/26 01:05:23;;;;;;;;;65.67;49.67;;;;;3.64;84.54;103141.59;5095908;27;46459;-67
2022/01/26 01:07:52;;;;;;;;;69.33;47.67;;;;;3.60;84.62;103137.06;5097659;27;45240;-67
2022/01/26 01:10:21;;;;;;;;;64.67;46.00;;;;;3.66;84.28;103143.44;5096720;27;45336;-67
2022/01/26 01:12:49;;;;;;;;;61.67;45.00;;;;;3.58;84.94;103136.13;5096504;27;45530;-67
2022/01/26 01:15:15;;;;;;;;;58.67;43.00;;;;;3.59;84.99;103132.69;5097038;27;45998;-67
2022/01/26 01:17:46;;;;;;;;;64.67;46.00;;;;;3.64;85.33;103146.81;5097888;27;45274;-67
2022/01/26 01:22:58;;;;;;;;;54.33;43.33;;;;;3.37;84.79;103089.16;5097331;27;45383;-67
2022/01/26 01:30:39;;;;;;;;;69.00;48.00;;;;;3.59;84.37;103128.38;5097569;27;45307;-67
2022/01/26 01:35:33;;;;;;;;;63.67;49.00;;;;;3.65;84.60;103141.66;5097191;27;45461;-67
2022/01/26 01:38:07;;;;;;;;;69.00;51.67;;;;;3.63;84.97;103126.78;5100085;27;45243;-67
2022/01/26 01:40:33;;;;;;;;;72.33;50.00;;;;;3.68;84.30;103142.66;5100979;27;45438;-67
2022/01/26 01:42:58;;;;;;;;;63.00;48.00;;;;;3.60;84.65;103132.78;5081028;27;45400;-67
2022/01/26 01:45:41;;;;;;;;;70.67;50.67;;;;;3.72;84.71;103142.84;5095654;27;45175;-67
2022/01/26 01:48:07;;;;;;;;;70.33;48.33;;;;;3.70;84.19;103136.66;5100799;27;45470;-67
2022/01/26 01:50:38;;;;;;;;;69.67;48.00;;;;;3.66;84.91;103137.38;5100827;27;45456;-67
2022/01/26 01:53:04;;;;;;;;;52.00;29.33;;;;;3.72;84.56;103131.50;5101309;27;45372;-69
2022/01/26 01:55:32;;;;;;;;;66.33;51.67;;;;;3.69;84.78;103132.28;5100817;27;46589;-70
2022/01/26 01:57:58;;;;;;;;;62.00;45.33;;;;;3.65;84.61;103118.22;5101201;27;45348;-70
2022/01/26 02:00:24;;;;;;;;;66.00;40.33;;;;;3.71;84.80;103124.53;5100935;27;45357;-70
2022/01/26 02:02:50;;;;;;;;;70.00;45.00;;;;;3.61;85.11;103110.19;5101111;27;45356;-67
2022/01/26 02:05:15;;;;;;;;;67.67;48.00;;;;;3.75;84.66;103123.84;5100839;27;45419;-67
2022/01/26 02:07:41;;;;;;;;;66.00;48.67;;;;;3.75;84.85;103122.13;5100555;27;45397;-67
2022/01/26 02:10:07;;;;;;;;;63.33;51.00;;;;;3.76;84.68;103113.50;5101010;27;45388;-67
2022/01/26 02:12:35;;;;;;;;;80.33;53.33;;;;;3.82;84.63;103116.38;5101140;27;45632;-67
2022/01/26 02:15:10;;;;;;;;;71.00;54.67;;;;;3.83;84.00;103118.16;5100533;27;47270;-67
2022/01/26 02:50:46;;;;;;;;;73.67;54.67;;;;;3.79;83.70;103084.06;5099194;27;45347;-67
2022/01/26 02:53:27;;;;;;;;;74.33;54.00;;;;;3.79;83.63;103084.97;5100330;27;45272;-67
2022/01/26 02:55:58;;;;;;;;;72.67;54.00;;;;;3.77;83.89;103077.91;5100133;27;45437;-67
2022/01/26 02:58:47;;;;;;;;;72.33;53.00;;;;;3.81;83.46;103072.88;5099319;27;46200;-67
2022/01/26 03:03:53;;;;;;;;;76.00;57.67;;;;;3.76;83.64;103064.00;5099913;27;45168;-67
2022/01/26 03:06:25;;;;;;;;;78.67;58.33;;;;;3.74;83.41;103069.94;5099608;27;45450;-67
2022/01/26 03:08:58;;;;;;;;;81.67;58.00;;;;;3.78;84.22;103077.97;5099881;27;46268;-67
2022/01/26 03:11:27;;;;;;;;;76.67;55.33;;;;;3.82;84.00;103076.41;5099128;27;45468;-67
2022/01/26 03:14:00;;;;;;;;;65.33;46.33;;;;;3.81;83.96;103075.47;5099709;27;45249;-67
2022/01/26 03:16:33;;;;;;;;;78.67;56.00;;;;;3.83;84.06;103078.16;5099866;27;45421;-67
2022/01/26 03:19:18;;;;;;;;;79.67;55.33;;;;;3.80;84.02;103078.91;5099577;27;47107;-67
2022/01/26 03:30:19;;;;;;;;;80.67;57.33;;;;;3.89;83.66;103075.81;5036256;28;45484;-67
2022/01/26 03:38:08;;;;;;;;;77.33;57.00;;;;;3.88;83.66;103074.03;5036724;28;45363;-67
2022/01/26 03:40:36;;;;;;;;;83.00;60.00;;;;;3.86;83.87;103065.25;5036184;28;45288;-67
2022/01/26 03:43:03;;;;;;;;;72.67;55.67;;;;;3.93;84.01;103077.72;5036054;28;45466;-67
2022/01/26 03:45:28;;;;;;;;;82.00;56.33;;;;;3.95;84.07;103083.00;5036342;28;45474;-67
2022/01/26 03:47:55;;;;;;;;;80.00;56.33;;;;;3.98;83.67;103083.16;5036281;28;45383;-67
2022/01/26 03:50:22;;;;;;;;;82.33;57.33;;;;;3.99;83.68;103072.78;5036147;28;46623;-67
2022/01/26 03:52:47;;;;;;;;;77.00;56.00;;;;;3.99;83.51;103078.00;5036294;28;45528;-67
2022/01/26 03:55:13;;;;;;;;;71.67;54.33;;;;;4.01;83.63;103078.06;5034662;28;45390;-67
2022/01/26 03:57:38;;;;;;;;;85.00;58.33;;;;;4.02;83.89;103077.22;5035680;28;45507;-67
2022/01/26 04:00:07;;;;;;;;;74.67;53.67;;;;;4.04;83.83;103064.25;5035752;28;45672;-67
2022/01/26 04:02:33;;;;;;;;;75.00;56.00;;;;;3.90;83.50;103043.72;5073798;28;45374;-67
2022/01/26 04:05:01;;;;;;;;;76.33;56.67;;;;;4.08;83.43;103069.69;5078318;28;45664;-67
2022/01/26 04:07:27;;;;;;;;;74.33;55.33;;;;;4.02;83.50;103051.16;5079149;27;45374;-67
2022/01/26 04:09:53;;;;;;;;;80.67;59.67;;;;;4.01;83.58;103055.47;5097374;27;48149;-67
2022/01/26 04:12:18;;;;;;;;;69.67;53.33;;;;;4.01;83.26;103049.38;5099085;27;45303;-67
2022/01/26 04:14:50;;;;;;;;;82.00;56.33;;;;;4.03;83.60;103042.50;5098635;27;45533;-67
2022/01/26 04:17:16;;;;;;;;;87.00;62.50;;;;;4.10;83.44;103056.69;5099047;27;45383;-67
2022/01/26 04:19:41;;;;;;;;;77.67;54.67;;;;;4.14;83.38;103059.50;5098631;27;46739;-67
2022/01/26 04:22:17;;;;;;;;;73.00;51.33;;;;;4.15;83.57;103065.59;5097934;27;45368;-67
2022/01/26 04:24:50;;;;;;;;;74.67;54.00;;;;;4.04;83.21;103041.69;5098647;27;45254;-67
2022/01/26 04:27:23;;;;;;;;;85.00;60.33;;;;;4.02;83.79;103045.94;5098991;27;45368;-67
2022/01/26 04:29:49;;;;;;;;;74.33;57.00;;;;;4.07;83.41;103046.16;5098457;27;45442;-67
2022/01/26 04:32:16;;;;;;;;;75.00;56.67;;;;;4.03;83.32;103042.50;5098388;27;45369;-67
2022/01/26 04:37:47;;;;;;;;;75.33;52.67;;;;;4.07;83.44;103046.16;5098401;27;45416;-67
2022/01/26 04:40:16;;;;;;;;;79.00;56.67;;;;;4.11;83.74;103069.78;5096850;27;46272;-67
2022/01/26 04:43:18;;;;;;;;;78.33;60.33;;;;;4.11;83.60;103077.63;5098348;27;45220;-67
2022/01/26 04:45:32;;;;;;;;;77.33;52.67;;;;;4.03;84.02;103075.50;5095709;27;45575;-67
2022/01/26 04:47:58;;;;;;;;;0.00;0.00;;;;;4.11;83.88;103100.16;5098784;27;45280;-67
2022/01/26 04:50:23;;;;;;;;;73.67;55.67;;;;;4.10;84.09;103095.81;5097818;27;45481;-67
2022/01/26 04:52:49;;;;;;;;;73.33;56.00;;;;;4.12;84.07;103100.22;5097084;27;45405;-67
2022/01/26 04:55:14;;;;;;;;;82.67;56.00;;;;;4.21;83.83;103107.56;5098416;27;45283;-67
2022/01/26 04:57:40;;;;;;;;;76.67;55.67;;;;;4.27;83.77;103117.34;5097884;27;45448;-67
2022/01/26 05:00:08;;;;;;;;;75.33;53.00;;;;;4.27;83.78;103114.75;5098115;27;45527;-67
2022/01/26 05:02:34;;;;;;;;;77.00;58.67;;;;;4.31;84.00;103125.38;5097613;27;45367;-67
2022/01/26 05:05:00;;;;;;;;;71.67;55.33;;;;;4.30;83.65;103117.50;5097913;27;45472;-67
2022/01/26 05:07:25;;;;;;;;;83.33;58.00;;;;;4.35;83.44;103122.06;5097630;27;45410;-67
2022/01/26 05:09:50;;;;;;;;;75.33;57.33;;;;;4.33;83.57;103112.41;5097573;27;46376;-67
2022/01/26 05:12:17;;;;;;;;;76.33;55.67;;;;;4.26;83.53;103100.81;5097233;27;45424;-67
2022/01/26 05:14:45;;;;;;;;;84.00;59.00;;;;;4.41;83.57;103112.72;5097738;27;45343;-67
2022/01/26 05:17:12;;;;;;;;;84.33;57.00;;;;;4.36;83.35;103105.59;5097751;27;45196;-67
2022/01/26 05:19:38;;;;;;;;;77.67;55.67;;;;;4.41;83.15;103120.53;5097304;27;46421;-68
2022/01/26 05:22:04;;;;;;;;;78.67;55.33;;;;;4.38;83.48;103116.09;5097278;27;45317;-68
2022/01/26 05:24:30;;;;;;;;;68.00;51.33;;;;;4.35;83.31;103093.38;5097748;27;45307;-68
2022/01/26 05:26:55;;;;;;;;;71.00;51.33;;;;;4.38;83.07;103095.22;5097968;27;45241;-68
2022/01/26 05:29:20;;;;;;;;;71.67;53.33;;;;;4.28;83.21;103078.28;5096981;27;46444;-67
2022/01/26 05:31:46;;;;;;;;;76.67;56.00;;;;;4.42;83.22;103104.94;5097700;27;45351;-68
2022/01/26 05:34:11;;;;;;;;;71.67;54.33;;;;;4.41;83.00;103105.78;5097964;27;45410;-68
2022/01/26 05:36:36;;;;;;;;;63.00;50.33;;;;;4.31;82.85;103077.53;5097561;27;45412;-70
2022/01/26 05:39:03;;;;;;;;;67.00;51.67;;;;;4.46;83.16;103103.34;5096687;27;46113;-68
2022/01/26 05:41:29;;;;;;;;;75.67;54.67;;;;;4.36;82.88;103092.53;5097634;27;45325;-67
2022/01/26 05:43:54;;;;;;;;;77.00;55.00;;;;;4.42;82.66;103097.13;5096248;27;45341;-69
2022/01/26 05:46:31;;;;;;;;;68.67;49.33;;;;;4.30;82.64;103081.00;5097557;27;45525;-70
2022/01/26 05:48:56;;;;;;;;;75.67;54.67;;;;;4.35;82.55;103075.09;5097495;27;47405;-70
2022/01/26 05:51:22;;;;;;;;;70.00;51.67;;;;;4.41;82.74;103070.97;5097264;27;45323;-70
2022/01/26 05:53:48;;;;;;;;;71.00;51.67;;;;;4.40;83.03;103075.31;5097533;27;45404;-70
2022/01/26 05:56:14;;;;;;;;;65.67;47.67;;;;;4.36;82.91;103065.59;5095007;27;45457;-68
2022/01/26 05:58:39;;;;;;;;;74.00;54.00;;;;;4.43;82.87;103067.63;5105709;27;46787;-66
2022/01/26 06:01:05;;;;;;;;;67.00;49.33;;;;;4.42;82.57;103065.81;5097133;27;45377;-67
2022/01/26 06:03:31;;;;;;;;;71.33;51.67;;;;;4.42;82.62;103065.81;5097453;27;45385;-67
2022/01/26 06:05:57;;;;;;;;;75.33;52.00;;;;;4.43;82.68;103069.31;5096809;27;45352;-68
2022/01/26 06:08:23;;;;;;;;;72.00;50.33;;;;;4.36;82.67;103058.63;5096676;27;45459;-68
2022/01/26 06:10:50;;;;;;;;;84.75;64.00;;;;;4.44;82.46;103071.97;5097269;27;45455;-68
2022/01/26 06:13:15;;;;;;;;;72.00;49.67;;;;;4.42;82.62;103073.66;5096840;27;45367;-69
2022/01/26 06:15:41;;;;;;;;;70.00;49.00;;;;;4.49;82.25;103095.66;5096782;27;45468;-68
2022/01/26 06:18:08;;;;;;;;;65.33;49.00;;;;;4.46;82.33;103091.22;5096192;27;46378;-68
2022/01/26 06:20:33;;;;;;;;;71.67;50.33;;;;;4.46;82.33;103087.69;5094999;27;45568;-69
2022/01/26 06:22:59;;;;;;;;;73.67;54.33;;;;;4.46;81.99;103074.66;5096883;27;45288;-71
2022/01/26 06:25:24;;;;;;;;;68.67;51.33;;;;;4.48;82.32;103089.53;5099899;27;45356;-69
2022/01/26 06:27:52;;;;;;;;;80.67;52.00;;;;;4.41;82.07;103081.41;5100513;27;46450;-68
2022/01/26 06:30:18;;;;;;;;;70.00;52.33;;;;;4.43;82.03;103088.47;5099941;27;45345;-68
2022/01/26 06:32:44;;;;;;;;;63.67;45.67;;;;;4.45;81.65;103092.03;5099754;27;45223;-68
2022/01/26 06:35:11;;;;;;;;;74.67;51.33;;;;;4.42;81.46;103089.31;5100751;27;45434;-69
2022/01/26 06:37:37;;;;;;;;;62.00;47.67;;;;;4.42;81.60;103089.31;5099053;27;47287;-68
2022/01/26 06:40:04;;;;;;;;;72.33;51.67;;;;;4.47;81.13;103105.13;5099283;27;45450;-69
2022/01/26 06:42:36;;;;;;;;;73.67;53.67;;;;;4.43;81.70;103096.31;5096260;27;45571;-68
2022/01/26 06:49:52;;;;;;;;;77.00;57.25;;;;;4.42;81.33;103093.63;5100262;27;45345;-68
2022/01/26 06:52:18;;;;;;;;;71.33;49.00;;;;;4.38;80.95;103084.78;5100125;27;45370;-68
2022/01/26 06:54:43;;;;;;;;;77.67;54.67;;;;;4.44;81.22;103087.63;5100564;27;45402;-68
2022/01/26 06:57:09;;;;;;;;;64.33;50.33;;;;;4.35;81.03;103093.38;5100057;27;46376;-68
2022/01/26 06:59:34;;;;;;;;;57.67;44.33;;;;;4.38;81.04;103094.34;5100065;27;45377;-68
2022/01/26 07:02:00;;;;;;;;;71.33;49.67;;;;;4.41;81.04;103100.56;5100084;27;45349;-68
2022/01/26 07:04:26;;;;;;;;;73.00;52.33;;;;;4.35;80.62;103092.50;5100122;27;45376;-68
2022/01/26 07:06:51;;;;;;;;;70.33;51.67;;;;;4.42;80.58;103115.38;5099785;27;45397;-67
2022/01/26 07:09:17;;;;;;;;;75.00;53.67;;;;;4.34;80.75;103108.94;5099797;27;45281;-68
2022/01/26 07:11:45;;;;;;;;;69.33;51.33;;;;;4.41;80.73;103115.31;5099881;27;45170;-68
2022/01/26 07:14:11;;;;;;;;;73.33;53.00;;;;;4.41;80.78;103134.47;5100070;27;45274;-67
2022/01/26 07:22:04;;;;;;;;;72.33;53.67;;;;;4.37;80.44;103132.56;5099644;27;45221;-68
2022/01/26 07:24:29;;;;;;;;;75.67;53.67;;;;;4.32;80.79;103108.00;5099852;27;45208;-69
2022/01/26 07:26:55;;;;;;;;;75.00;49.00;;;;;4.36;80.29;103107.31;5098360;27;48198;-68
2022/01/26 07:29:24;;;;;;;;;79.33;54.33;;;;;4.44;80.52;103118.94;5098460;27;45172;-68
2022/01/26 07:31:50;;;;;;;;;71.33;53.67;;;;;4.47;80.75;103123.41;5099534;27;45394;-68
2022/01/26 07:34:19;;;;;;;;;71.33;53.00;;;;;4.39;80.31;103124.81;5099424;27;45386;-67
2022/01/26 07:36:46;;;;;;;;;76.33;50.67;;;;;4.41;80.50;103133.59;5098984;27;47536;-68
2022/01/26 07:39:16;;;;;;;;;71.00;52.33;;;;;4.45;80.75;103141.59;5099367;27;45397;-68
2022/01/26 07:41:41;;;;;;;;;68.33;52.00;;;;;4.09;80.43;103075.75;5099497;27;45301;-70
2022/01/26 07:44:07;;;;;;;;;72.67;50.67;;;;;4.41;80.65;103125.75;5099722;27;45260;-70
2022/01/26 07:46:32;;;;;;;;;73.33;54.33;;;;;4.38;80.40;103129.13;5099273;27;46308;-70
2022/01/26 07:48:58;;;;;;;;;74.67;51.00;;;;;4.44;80.13;103136.31;5099331;27;45320;-68
2022/01/26 07:51:24;;;;;;;;;72.00;52.33;;;;;4.48;79.69;103148.66;5099326;27;45393;-68
2022/01/26 07:53:50;;;;;;;;;72.00;52.33;;;;;4.29;79.86;103134.84;5099390;27;45619;-68
2022/01/26 07:56:15;;;;;;;;;79.33;55.00;;;;;4.43;80.23;103161.53;5099007;27;46962;-68
2022/01/26 07:58:41;;;;;;;;;74.67;52.00;;;;;4.43;80.43;103166.75;5099049;27;45440;-68
2022/01/26 08:01:07;;;;;;;;;70.00;54.33;;;;;4.34;80.06;103145.47;5099337;27;45312;-68
2022/01/26 08:03:33;;;;;;;;;62.00;49.00;;;;;4.39;80.42;103167.44;5099301;27;45716;-68
2022/01/26 08:06:03;;;;;;;;;78.00;52.33;;;;;4.41;80.40;103177.94;5098906;27;47344;-70
2022/01/26 08:08:29;;;;;;;;;73.00;51.00;;;;;4.46;80.37;103192.03;5098979;27;45269;-70
2022/01/26 08:10:56;;;;;;;;;77.00;54.00;;;;;4.40;80.05;103169.22;5099035;27;45398;-70
2022/01/26 08:13:21;;;;;;;;;83.67;58.33;;;;;4.43;80.19;103150.19;5099097;27;45303;-70
2022/01/26 08:15:47;;;;;;;;;84.00;57.67;;;;;4.18;80.18;103097.00;5098769;27;46357;-70
2022/01/26 08:18:12;;;;;;;;;81.00;57.33;;;;;4.48;79.99;103153.88;5098716;27;45382;-70
2022/01/26 08:20:39;;;;;;;;;79.33;54.33;;;;;4.38;79.64;103136.94;5098934;27;45301;-70
2022/01/26 08:23:05;;;;;;;;;86.67;57.67;;;;;4.50;79.92;103173.09;5098867;27;45307;-70
2022/01/26 08:25:30;;;;;;;;;80.00;57.00;;;;;4.43;79.75;103166.75;5098525;27;45516;-70
2022/01/26 08:28:08;;;;;;;;;83.00;62.00;;;;;4.45;79.66;103174.63;5098742;27;45425;-70
2022/01/26 08:30:37;;;;;;;;;71.00;52.00;;;;;4.44;78.99;103172.84;5098666;27;45375;-68
2022/01/26 08:33:04;;;;;;;;;68.67;51.00;;;;;4.47;78.09;103184.31;5098346;27;45427;-68
2022/01/26 08:35:29;;;;;;;;;77.67;54.00;;;;;4.46;79.01;103174.69;5098259;27;46505;-68
2022/01/26 08:37:54;;;;;;;;;65.67;47.00;;;;;4.43;78.41;103171.97;5098108;27;45318;-68
2022/01/26 08:40:20;;;;;;;;;64.67;49.33;;;;;4.38;78.70;103169.97;5098790;27;45371;-68
2022/01/26 08:42:45;;;;;;;;;61.00;47.67;;;;;4.35;78.71;103157.69;5098464;27;45400;-71
2022/01/26 08:45:11;;;;;;;;;64.33;52.33;;;;;4.38;78.52;103165.63;5097880;27;46302;-68
2022/01/26 08:47:36;;;;;;;;;69.67;51.67;;;;;4.41;78.02;103170.09;5097357;27;45420;-68
2022/01/26 08:50:04;;;;;;;;;65.00;48.67;;;;;4.45;78.30;103166.81;5098499;27;45372;-68
2022/01/26 08:52:29;;;;;;;;;68.00;51.67;;;;;4.46;78.50;103165.94;5098462;27;45153;-68
2022/01/26 08:54:55;;;;;;;;;69.67;49.33;;;;;4.46;78.83;103160.72;5097967;27;46466;-68
2022/01/26 08:57:20;;;;;;;;;78.33;54.00;;;;;4.46;78.54;103155.50;5098019;27;45357;-68
2022/01/26 08:59:45;;;;;;;;;69.33;53.33;;;;;4.47;78.24;103168.66;5098481;27;45476;-68
2022/01/26 09:02:11;;;;;;;;;77.33;51.33;;;;;4.47;78.21;103167.75;5098227;27;45550;-68
2022/01/26 09:04:36;;;;;;;;;68.67;49.00;;;;;4.44;77.85;103160.66;5097916;27;45404;-68
2022/01/26 09:07:03;;;;;;;;;70.00;49.67;;;;;4.36;77.34;103147.31;5097818;27;45355;-68
2022/01/26 09:09:32;;;;;;;;;63.33;47.33;;;;;4.50;77.89;103170.47;5098276;27;45445;-71
2022/01/26 09:12:00;;;;;;;;;56.00;43.33;;;;;4.45;77.16;103154.63;5098285;27;45255;-70
2022/01/26 09:14:28;;;;;;;;;61.00;47.67;;;;;4.48;77.28;103156.50;5097527;27;45248;-71
2022/01/26 09:16:55;;;;;;;;;62.67;44.33;;;;;4.50;76.60;103158.34;5097630;27;45403;-67
2022/01/26 09:19:31;;;;;;;;;69.67;46.67;;;;;4.22;76.54;103124.09;5098052;27;45367;-68
2022/01/26 09:22:03;;;;;;;;;32.00;19.67;;;;;4.50;76.83;103160.94;5097954;27;45355;-68
2022/01/26 09:24:30;;;;;;;;;63.33;49.00;;;;;4.50;75.89;103158.34;5097619;27;45512;-68
2022/01/26 09:26:56;;;;;;;;;69.67;47.00;;;;;4.49;76.18;103167.00;5097577;27;45415;-68
2022/01/26 09:29:22;;;;;;;;;61.00;47.33;;;;;4.53;76.40;103162.78;5097777;27;45329;-68
2022/01/26 09:31:47;;;;;;;;;59.00;46.00;;;;;4.58;76.12;103169.09;5096598;27;45483;-70
2022/01/26 09:34:24;;;;;;;;;60.00;42.67;;;;;4.60;76.69;103169.16;5097712;27;46700;-70
2022/01/26 09:36:50;;;;;;;;;51.67;41.00;;;;;4.60;76.42;103175.25;5097700;27;45437;-68
2022/01/26 09:39:17;;;;;;;;;57.33;43.67;;;;;4.61;76.45;103178.75;5097618;27;45253;-68
2022/01/26 09:41:48;;;;;;;;;68.33;50.00;;;;;4.59;76.27;103186.53;5098050;27;45311;-68
2022/01/26 09:44:14;;;;;;;;;55.00;43.33;;;;;4.63;76.13;103197.97;5097247;27;46241;-68
2022/01/26 09:46:41;;;;;;;;;57.33;41.00;;;;;4.62;76.11;103201.41;5097481;27;45349;-68
2022/01/26 09:49:07;;;;;;;;;55.33;43.00;;;;;4.50;76.07;103184.44;5097424;27;45308;-70
2022/01/26 09:51:40;;;;;;;;;48.67;39.33;;;;;4.64;75.96;103199.75;5097644;27;45477;-70
2022/01/26 09:54:13;;;;;;;;;55.33;41.67;;;;;4.63;75.54;103193.66;5097370;27;46310;-70
2022/01/26 09:56:38;;;;;;;;;54.00;40.00;;;;;4.51;76.23;103173.16;5097497;27;45238;-70
2022/01/26 09:59:06;;;;;;;;;61.00;47.33;;;;;4.63;75.40;103184.91;5099949;27;45153;-70
2022/01/26 10:01:47;;;;;;;;;66.67;48.33;;;;;4.61;75.89;103182.25;5101317;27;45321;-69
2022/01/26 10:04:35;;;;;;;;;55.67;40.00;;;;;4.68;75.60;103183.41;5100885;27;46398;-70
2022/01/26 10:07:15;;;;;;;;;60.33;44.33;;;;;4.71;75.94;103181.81;5100826;27;45315;-70
2022/01/26 10:09:57;;;;;;;;;62.00;46.67;;;;;4.73;75.68;103176.63;5100622;27;45419;-70
2022/01/26 10:18:15;;;;;;;;;71.67;54.67;;;;;4.69;75.71;103156.47;5057749;28;45385;-70
2022/01/26 10:20:40;;;;;;;;;56.67;45.00;;;;;4.87;75.60;103174.59;5057702;28;45314;-69
2022/01/26 10:23:08;;;;;;;;;63.33;47.67;;;;;4.85;75.64;103177.16;5057861;28;45299;-70
2022/01/26 10:25:33;;;;;;;;;70.33;48.33;;;;;4.90;75.85;103172.09;5057533;28;46319;-70
2022/01/26 10:27:59;;;;;;;;;67.67;46.67;;;;;4.87;75.37;103161.56;5057371;28;45633;-70
2022/01/26 10:30:25;;;;;;;;;61.00;46.00;;;;;4.94;75.20;103168.81;5058093;28;45531;-70
2022/01/26 10:32:50;;;;;;;;;56.00;43.33;;;;;4.86;75.73;103162.38;5057965;28;45611;-68
2022/01/26 10:35:16;;;;;;;;;69.67;49.33;;;;;4.91;75.76;103165.16;5057571;28;46153;-68
2022/01/26 10:37:58;;;;;;;;;69.00;50.33;;;;;4.95;75.46;103169.69;5057262;28;45314;-68
2022/01/26 10:40:27;;;;;;;;;53.67;41.67;;;;;4.90;75.86;103152.97;5057452;28;45288;-68
2022/01/26 10:43:08;;;;;;;;;57.33;44.00;;;;;5.05;75.66;103158.75;5057726;28;45426;-68
2022/01/26 10:51:19;;;;;;;;;54.00;39.00;;;;;5.12;74.80;103166.00;5057655;28;45691;-68
2022/01/26 10:53:39;;;;;;;;;58.00;43.00;;;;;5.12;74.72;103176.44;5074382;27;45605;-68
2022/01/26 10:56:05;;;;;;;;;61.33;47.00;;;;;5.17;74.17;103185.38;5099916;27;45444;-68
2022/01/26 10:58:31;;;;;;;;;61.33;44.00;;;;;5.07;74.46;103172.78;5100305;27;45173;-69
2022/01/26 11:00:57;;;;;;;;;64.00;43.00;;;;;5.16;74.19;103177.47;5100046;27;45423;-69
2022/01/26 11:03:22;;;;;;;;;57.00;44.67;;;;;5.27;74.66;103170.97;5100055;27;45457;-69
2022/01/26 11:05:48;;;;;;;;;61.00;46.00;;;;;5.20;74.52;103146.31;5099956;27;45321;-68
2022/01/26 11:08:16;;;;;;;;;70.00;50.33;;;;;5.26;74.01;103147.38;5099450;27;45505;-69
2022/01/26 11:10:45;;;;;;;;;63.33;49.67;;;;;5.35;74.00;103159.06;5099295;27;45373;-69
2022/01/26 11:13:10;;;;;;;;;63.33;46.33;;;;;5.40;74.44;103148.78;5099941;27;45379;-68
2022/01/26 11:15:36;;;;;;;;;61.33;45.33;;;;;5.41;73.68;103143.59;5099542;27;45233;-68
2022/01/26 11:18:10;;;;;;;;;56.33;38.00;;;;;5.47;73.86;103142.94;5100007;27;45330;-68
2022/01/26 11:20:49;;;;;;;;;69.33;47.00;;;;;5.49;73.53;103138.69;5098085;27;45237;-68
2022/01/26 11:23:18;;;;;;;;;57.67;41.67;;;;;5.46;73.52;103125.50;5099839;27;45377;-67
2022/01/26 11:25:48;;;;;;;;;61.00;45.33;;;;;5.51;73.61;103126.56;5099334;27;46260;-70
2022/01/26 11:28:25;;;;;;;;;53.67;42.00;;;;;5.55;73.58;103131.06;5099658;27;45532;-68
2022/01/26 11:30:53;;;;;;;;;65.67;45.00;;;;;5.57;73.43;103133.72;5099589;27;45277;-68
2022/01/26 11:33:25;;;;;;;;;59.00;42.67;;;;;5.63;73.71;103131.34;5099828;27;45245;-68
2022/01/26 11:35:53;;;;;;;;;55.00;42.00;;;;;5.62;72.93;103106.06;5099486;27;45425;-68
2022/01/26 11:46:34;;;;;;;;;48.33;39.00;;;;;5.96;72.35;103106.34;5099057;27;45764;-68
2022/01/26 11:49:11;;;;;;;;;60.00;44.00;;;;;6.01;71.90;103105.72;5099571;27;45178;-68
2022/01/26 11:51:51;;;;;;;;;57.00;42.00;;;;;6.12;71.83;103111.28;5099486;27;45277;-68
2022/01/26 11:54:21;;;;;;;;;59.67;42.33;;;;;6.18;71.64;103119.34;5099461;27;45438;-68
2022/01/26 11:57:01;;;;;;;;;56.67;43.67;;;;;6.22;71.08;103115.13;5099163;27;45391;-69
2022/01/26 11:59:29;;;;;;;;;50.00;38.33;;;;;6.27;71.46;103106.59;5099040;27;45336;-69
2022/01/26 12:02:00;;;;;;;;;54.00;40.67;;;;;6.35;70.99;103101.59;5099389;27;45441;-69
2022/01/26 12:04:26;;;;;;;;;52.67;38.00;;;;;6.23;70.81;103073.31;5099065;27;45366;-69
2022/01/26 12:06:58;;;;;;;;;63.67;45.33;;;;;6.33;70.36;103084.97;5098672;27;46294;-69
2022/01/26 12:09:26;;;;;;;;;54.33;39.67;;;;;6.42;70.33;103095.72;5098861;27;45253;-69
2022/01/26 12:11:52;;;;;;;;;58.00;40.00;;;;;6.41;70.42;103095.69;5099035;27;45549;-68
2022/01/26 12:14:21;;;;;;;;;55.67;42.00;;;;;6.39;70.18;103089.50;5097685;27;45416;-68
2022/01/26 12:16:49;;;;;;;;;54.33;42.33;;;;;6.46;70.87;103088.84;5098908;27;45921;-68
2022/01/26 12:32:08;;;;;;;;;61.33;45.67;;;;;6.53;71.16;103100.41;5098758;27;45734;-69
2022/01/26 12:36:26;;;;;;;;;47.67;38.33;;;;;6.45;70.50;103069.66;5098533;27;45449;-68
2022/01/26 12:38:58;;;;;;;;;56.00;42.33;;;;;6.39;70.67;103048.53;5098067;27;45415;-70
2022/01/26 12:41:33;;;;;;;;;46.67;32.67;;;;;6.51;70.97;103062.84;5098133;27;45333;-69
2022/01/26 12:44:11;;;;;;;;;57.00;41.33;;;;;6.53;70.95;103062.03;5098465;27;45310;-68
2022/01/26 12:46:37;;;;;;;;;50.33;41.67;;;;;6.53;70.91;103048.06;5098656;27;45363;-68
2022/01/26 12:49:10;;;;;;;;;51.33;36.67;;;;;6.64;70.50;103062.41;5098040;27;45454;-68
2022/01/26 12:51:45;;;;;;;;;53.00;37.67;;;;;6.68;70.69;103060.75;5098184;27;45867;-68
2022/01/26 12:54:12;;;;;;;;;57.67;39.67;;;;;6.67;69.85;103056.38;5098376;27;45523;-67
2022/01/26 12:56:38;;;;;;;;;45.00;35.67;;;;;6.65;70.11;103056.31;5098229;27;45337;-68
2022/01/26 12:59:12;;;;;;;;;53.33;38.00;;;;;6.76;70.14;103061.88;5098055;27;45367;-67
2022/01/26 13:01:39;;;;;;;;;57.00;41.33;;;;;6.80;70.13;103064.63;5097910;27;45299;-67
2022/01/26 13:04:07;;;;;;;;;52.67;39.33;;;;;6.82;69.26;103067.28;5098256;27;45206;-66
2022/01/26 13:06:35;;;;;;;;;61.00;42.33;;;;;6.84;69.66;103067.34;5098399;27;45175;-67
2022/01/26 13:09:15;;;;;;;;;54.33;40.00;;;;;6.86;69.78;103056.06;5097876;27;46062;-67
2022/01/26 13:11:40;;;;;;;;;45.67;38.67;;;;;6.78;69.03;103041.84;5097850;27;45443;-67
2022/01/26 13:14:19;;;;;;;;;59.00;40.67;;;;;6.88;69.64;103057.00;5096471;27;45333;-69
2022/01/26 13:17:35;;;;;;;;;49.67;39.67;;;;;6.88;69.47;103049.13;5098519;27;45373;-69
2022/01/26 13:26:16;;;;;;;;;47.33;38.67;;;;;6.95;68.80;103050.22;5097529;27;45303;-69
2022/01/26 13:36:57;;;;;;;;;46.67;37.67;;;;;6.92;69.35;103023.94;5101488;27;45299;-69
2022/01/26 13:44:46;;;;;;;;;49.50;37.00;;;;;7.00;69.15;103027.69;5101071;27;45401;-69
2022/01/26 13:52:16;;;;;;;;;48.00;35.00;;;;;7.07;68.45;103020.88;5101178;27;45404;-69
2022/01/26 13:54:54;;;;;;;;;43.67;36.00;;;;;7.05;68.83;103017.34;5100867;27;45434;-69